createdAt,value
2022-09-04T00:00:11.253Z,16.95
2022-09-04T00:01:11.258Z,16.96
2022-09-04T00:02:11.240Z,16.95
2022-09-04T00:03:11.204Z,16.96
2022-09-04T00:04:11.283Z,16.95
2022-09-04T00:05:11.380Z,16.92
2022-09-04T00:06:11.170Z,16.95
2022-09-04T00:07:11.202Z,16.91
2022-09-04T00:08:11.148Z,16.90
2022-09-04T00:09:11.164Z,16.88
2022-09-04T00:10:11.133Z,16.88
2022-09-04T00:11:11.141Z,16.87
2022-09-04T00:12:11.137Z,16.85
2022-09-04T00:13:11.157Z,16.82
2022-09-04T00:14:11.107Z,16.82
2022-09-04T00:15:11.092Z,16.81
2022-09-04T00:16:11.091Z,16.82
2022-09-04T00:17:11.061Z,16.81
2022-09-04T00:18:11.042Z,16.81
2022-09-04T00:19:11.082Z,16.77
2022-09-04T00:20:11.038Z,16.77
2022-09-04T00:21:11.015Z,16.72
2022-09-04T00:22:11.009Z,16.67
2022-09-04T00:23:11.011Z,16.65
2022-09-04T00:24:11.003Z,16.62
2022-09-04T00:25:10.991Z,16.60
2022-09-04T00:26:10.961Z,16.60
2022-09-04T00:27:10.967Z,16.60
2022-09-04T00:28:10.954Z,16.62
2022-09-04T00:29:10.968Z,16.62
2022-09-04T00:30:10.921Z,16.63
2022-09-04T00:31:11.096Z,16.65
2022-09-04T00:32:10.918Z,16.65
2022-09-04T00:33:10.912Z,16.65
2022-09-04T00:34:10.910Z,16.66
2022-09-04T00:35:10.920Z,16.65
2022-09-04T00:36:10.860Z,16.63
2022-09-04T00:37:10.844Z,16.60
2022-09-04T00:38:10.895Z,16.55
2022-09-04T00:39:11.972Z,16.54
2022-09-04T00:40:10.835Z,16.52
2022-09-04T00:41:10.865Z,16.52
2022-09-04T00:42:10.913Z,16.50
2022-09-04T00:43:10.783Z,16.50
2022-09-04T00:44:10.834Z,16.48
2022-09-04T00:45:12.033Z,16.48
2022-09-04T00:46:10.935Z,16.48
2022-09-04T00:47:10.738Z,16.47
2022-09-04T00:48:10.736Z,16.45
2022-09-04T00:49:10.981Z,16.48
2022-09-04T00:50:10.714Z,16.47
2022-09-04T00:51:10.700Z,16.47
2022-09-04T00:52:10.699Z,16.47
2022-09-04T00:53:10.703Z,16.44
2022-09-04T00:54:10.689Z,16.44
2022-09-04T00:55:10.659Z,16.41
2022-09-04T00:56:10.678Z,16.41
2022-09-04T00:57:10.658Z,16.42
2022-09-04T00:58:10.650Z,16.41
2022-09-04T00:59:10.674Z,16.40
2022-09-04T01:00:10.674Z,16.41
2022-09-04T01:01:10.734Z,16.40
2022-09-04T01:02:10.704Z,16.41
2022-09-04T01:03:10.576Z,16.37
2022-09-04T01:04:10.585Z,16.34
2022-09-04T01:05:14.374Z,16.33
2022-09-04T01:06:10.556Z,16.32
2022-09-04T01:07:10.538Z,16.36
2022-09-04T01:08:13.338Z,16.34
2022-09-04T01:09:10.539Z,16.34
2022-09-04T01:10:10.522Z,16.27
2022-09-04T01:11:10.506Z,16.27
2022-09-04T01:12:10.485Z,16.27
2022-09-04T01:13:10.477Z,16.26
2022-09-04T01:14:10.480Z,16.22
2022-09-04T01:15:10.454Z,16.22
2022-09-04T01:16:10.532Z,16.22
2022-09-04T01:17:10.427Z,16.18
2022-09-04T01:18:10.423Z,16.23
2022-09-04T01:19:10.429Z,16.22
2022-09-04T01:20:10.415Z,16.18
2022-09-04T01:21:10.408Z,16.17
2022-09-04T01:22:10.386Z,16.16
2022-09-04T01:23:10.370Z,16.17
2022-09-04T01:24:10.380Z,16.18
2022-09-04T01:25:10.353Z,16.16
2022-09-04T01:26:10.342Z,16.17
2022-09-04T01:27:10.327Z,16.17
2022-09-04T01:28:10.327Z,16.17
2022-09-04T01:29:10.316Z,16.17
2022-09-04T01:30:10.300Z,16.16
2022-09-04T01:31:10.296Z,16.16
2022-09-04T01:32:10.282Z,16.16
2022-09-04T01:33:10.392Z,16.14
2022-09-04T01:34:10.356Z,16.13
2022-09-04T01:35:10.279Z,16.13
2022-09-04T01:36:10.239Z,16.11
2022-09-04T01:37:10.220Z,16.10
2022-09-04T01:38:10.221Z,16.11
2022-09-04T01:39:10.220Z,16.11
2022-09-04T01:40:10.207Z,16.10
2022-09-04T01:41:10.179Z,16.08
2022-09-04T01:42:10.183Z,16.08
2022-09-04T01:43:10.154Z,16.07
2022-09-04T01:44:10.202Z,16.03
2022-09-04T01:45:10.144Z,16.03
2022-09-04T01:46:10.162Z,16.01
2022-09-04T01:47:10.115Z,15.99
2022-09-04T01:48:10.126Z,15.95
2022-09-04T01:49:10.121Z,15.95
2022-09-04T01:50:10.090Z,15.96
2022-09-04T01:51:10.087Z,15.96
2022-09-04T01:52:10.073Z,15.98
2022-09-04T01:53:10.060Z,15.98
2022-09-04T01:54:10.092Z,15.99
2022-09-04T01:55:10.034Z,15.98
2022-09-04T01:56:10.036Z,15.96
2022-09-04T01:57:10.014Z,15.93
2022-09-04T01:58:10.021Z,15.93
2022-09-04T01:59:10.001Z,15.95
2022-09-04T02:00:10.003Z,15.95
2022-09-04T02:01:10.018Z,15.98
2022-09-04T02:02:10.013Z,15.98
2022-09-04T02:03:09.954Z,15.96
2022-09-04T02:04:09.957Z,15.96
2022-09-04T02:05:09.937Z,15.98
2022-09-04T02:06:09.935Z,15.99
2022-09-04T02:07:09.916Z,15.98
2022-09-04T02:08:09.933Z,15.98
2022-09-04T02:09:09.915Z,15.95
2022-09-04T02:10:09.884Z,15.93
2022-09-04T02:11:09.873Z,15.89
2022-09-04T02:12:09.860Z,15.92
2022-09-04T02:13:09.852Z,15.95
2022-09-04T02:14:09.865Z,15.95
2022-09-04T02:15:09.842Z,15.95
2022-09-04T02:16:09.892Z,15.95
2022-09-04T02:17:09.808Z,15.95
2022-09-04T02:18:09.803Z,15.95
2022-09-04T02:19:09.824Z,15.92
2022-09-04T02:20:09.786Z,15.92
2022-09-04T02:21:09.760Z,15.91
2022-09-04T02:22:09.758Z,15.89
2022-09-04T02:23:09.747Z,15.85
2022-09-04T02:24:09.871Z,15.84
2022-09-04T02:25:09.732Z,15.81
2022-09-04T02:26:09.722Z,15.80
2022-09-04T02:27:09.707Z,15.80
2022-09-04T02:28:09.695Z,15.81
2022-09-04T02:29:09.706Z,15.80
2022-09-04T02:30:09.667Z,15.77
2022-09-04T02:31:09.688Z,15.77
2022-09-04T02:32:09.796Z,15.77
2022-09-04T02:33:09.634Z,15.77
2022-09-04T02:34:09.652Z,15.80
2022-09-04T02:35:09.620Z,15.77
2022-09-04T02:36:09.626Z,15.74
2022-09-04T02:37:09.641Z,15.73
2022-09-04T02:38:09.594Z,15.70
2022-09-04T02:39:09.585Z,15.68
2022-09-04T02:40:09.573Z,15.67
2022-09-04T02:41:09.559Z,15.66
2022-09-04T02:42:09.564Z,15.64
2022-09-04T02:43:09.538Z,15.62
2022-09-04T02:44:09.549Z,15.62
2022-09-04T02:45:09.525Z,15.62
2022-09-04T02:46:09.506Z,15.64
2022-09-04T02:47:09.640Z,15.64
2022-09-04T02:48:09.495Z,15.70
2022-09-04T02:49:09.482Z,15.68
2022-09-04T02:50:09.475Z,15.68
2022-09-04T02:51:09.446Z,15.67
2022-09-04T02:52:09.443Z,15.70
2022-09-04T02:53:10.347Z,15.71
2022-09-04T02:54:09.476Z,15.68
2022-09-04T02:55:09.434Z,15.67
2022-09-04T02:56:09.414Z,15.68
2022-09-04T02:57:09.390Z,15.68
2022-09-04T02:58:09.381Z,15.66
2022-09-04T02:59:09.377Z,15.60
2022-09-04T03:00:09.378Z,15.60
2022-09-04T03:01:09.371Z,15.59
2022-09-04T03:02:09.371Z,15.59
2022-09-04T03:03:09.328Z,15.58
2022-09-04T03:04:09.354Z,15.59
2022-09-04T03:05:09.308Z,15.60
2022-09-04T03:06:09.602Z,15.62
2022-09-04T03:07:09.291Z,15.60
2022-09-04T03:08:09.274Z,15.60
2022-09-04T03:09:09.293Z,15.60
2022-09-04T03:10:09.258Z,15.59
2022-09-04T03:11:09.262Z,15.56
2022-09-04T03:12:09.238Z,15.53
2022-09-04T03:13:09.483Z,15.53
2022-09-04T03:14:09.230Z,15.55
2022-09-04T03:15:09.208Z,15.55
2022-09-04T03:16:09.248Z,15.53
2022-09-04T03:17:09.186Z,15.53
2022-09-04T03:18:12.660Z,15.51
2022-09-04T03:19:09.230Z,15.49
2022-09-04T03:20:09.176Z,15.43
2022-09-04T03:21:09.142Z,15.43
2022-09-04T03:22:09.128Z,15.41
2022-09-04T03:23:09.111Z,15.40
2022-09-04T03:24:09.123Z,15.38
2022-09-04T03:25:09.096Z,15.38
2022-09-04T03:26:09.091Z,15.37
2022-09-04T03:27:09.078Z,15.37
2022-09-04T03:28:09.067Z,15.37
2022-09-04T03:29:09.107Z,15.37
2022-09-04T03:30:09.047Z,15.38
2022-09-04T03:31:09.054Z,15.37
2022-09-04T03:32:16.059Z,15.41
2022-09-04T03:33:09.024Z,15.38
2022-09-04T03:34:09.103Z,15.40
2022-09-04T03:35:08.989Z,15.37
2022-09-04T03:36:08.985Z,15.38
2022-09-04T03:37:08.976Z,15.38
2022-09-04T03:38:08.977Z,15.37
2022-09-04T03:39:08.964Z,15.37
2022-09-04T03:40:08.942Z,15.38
2022-09-04T03:41:08.926Z,15.40
2022-09-04T03:42:09.037Z,15.38
2022-09-04T03:43:09.071Z,15.31
2022-09-04T03:44:08.913Z,15.28
2022-09-04T03:45:08.893Z,15.28
2022-09-04T03:46:08.916Z,15.25
2022-09-04T03:47:08.869Z,15.23
2022-09-04T03:48:08.860Z,15.22
2022-09-04T03:49:09.161Z,15.27
2022-09-04T03:50:08.835Z,15.25
2022-09-04T03:51:08.785Z,15.27
2022-09-04T03:52:08.938Z,15.27
2022-09-04T03:53:08.819Z,15.27
2022-09-04T03:54:08.808Z,15.30
2022-09-04T03:55:08.869Z,15.27
2022-09-04T03:56:08.889Z,15.27
2022-09-04T03:57:08.872Z,15.25
2022-09-04T03:58:08.782Z,15.20
2022-09-04T03:59:08.749Z,15.13
2022-09-04T04:00:08.704Z,15.09
2022-09-04T04:01:08.846Z,15.07
2022-09-04T04:02:09.551Z,15.01
2022-09-04T04:03:08.818Z,14.97
2022-09-04T04:04:08.650Z,14.94
2022-09-04T04:05:08.748Z,14.93
2022-09-04T04:06:08.620Z,14.93
2022-09-04T04:07:08.618Z,14.93
2022-09-04T04:08:08.626Z,14.95
2022-09-04T04:09:08.581Z,15.00
2022-09-04T04:10:08.574Z,15.00
2022-09-04T04:11:08.564Z,15.00
2022-09-04T04:12:08.560Z,15.03
2022-09-04T04:13:08.555Z,15.01
2022-09-04T04:14:08.531Z,15.00
2022-09-04T04:15:08.532Z,14.98
2022-09-04T04:16:08.582Z,14.97
2022-09-04T04:17:08.499Z,14.95
2022-09-04T04:18:08.512Z,14.95
2022-09-04T04:19:08.480Z,14.95
2022-09-04T04:20:08.475Z,14.94
2022-09-04T04:21:08.465Z,14.94
2022-09-04T04:22:08.470Z,14.94
2022-09-04T04:23:08.457Z,14.90
2022-09-04T04:24:08.427Z,14.90
2022-09-04T04:25:08.434Z,14.90
2022-09-04T04:26:08.408Z,14.87
2022-09-04T04:27:08.402Z,14.86
2022-09-04T04:28:08.406Z,14.86
2022-09-04T04:29:08.379Z,14.83
2022-09-04T04:30:08.387Z,14.82
2022-09-04T04:31:08.383Z,14.79
2022-09-04T04:32:08.365Z,14.79
2022-09-04T04:33:08.355Z,14.74
2022-09-04T04:34:08.330Z,14.67
2022-09-04T04:35:08.313Z,14.64
2022-09-04T04:36:08.303Z,14.66
2022-09-04T04:37:08.288Z,14.66
2022-09-04T04:38:08.300Z,14.67
2022-09-04T04:39:08.274Z,14.72
2022-09-04T04:40:08.284Z,14.72
2022-09-04T04:41:08.249Z,14.78
2022-09-04T04:42:08.240Z,14.75
2022-09-04T04:43:08.258Z,14.75
2022-09-04T04:44:08.222Z,14.74
2022-09-04T04:45:08.204Z,14.72
2022-09-04T04:46:08.240Z,14.67
2022-09-04T04:47:08.189Z,14.66
2022-09-04T04:48:08.186Z,14.64
2022-09-04T04:49:08.177Z,14.63
2022-09-04T04:50:08.155Z,14.60
2022-09-04T04:51:08.147Z,14.63
2022-09-04T04:52:08.154Z,14.66
2022-09-04T04:53:08.163Z,14.64
2022-09-04T04:54:09.915Z,14.67
2022-09-04T04:55:08.099Z,14.67
2022-09-04T04:56:08.112Z,14.69
2022-09-04T04:57:08.093Z,14.71
2022-09-04T04:58:08.088Z,14.72
2022-09-04T04:59:08.057Z,14.74
2022-09-04T05:00:08.065Z,14.78
2022-09-04T05:01:08.048Z,14.75
2022-09-04T05:02:08.266Z,14.74
2022-09-04T05:03:08.061Z,14.74
2022-09-04T05:04:08.205Z,14.71
2022-09-04T05:05:08.053Z,14.74
2022-09-04T05:06:07.983Z,14.71
2022-09-04T05:07:07.987Z,14.69
2022-09-04T05:08:08.619Z,14.61
2022-09-04T05:09:07.972Z,14.60
2022-09-04T05:10:07.941Z,14.60
2022-09-04T05:11:07.934Z,14.57
2022-09-04T05:12:07.923Z,14.53
2022-09-04T05:13:07.925Z,14.52
2022-09-04T05:14:07.908Z,14.54
2022-09-04T05:15:07.903Z,14.54
2022-09-04T05:16:09.270Z,14.57
2022-09-04T05:17:07.933Z,14.59
2022-09-04T05:18:07.875Z,14.60
2022-09-04T05:19:07.855Z,14.61
2022-09-04T05:20:07.861Z,14.63
2022-09-04T05:21:07.860Z,14.61
2022-09-04T05:22:07.819Z,14.61
2022-09-04T05:23:07.825Z,14.61
2022-09-04T05:24:07.799Z,14.61
2022-09-04T05:25:07.791Z,14.64
2022-09-04T05:26:07.794Z,14.66
2022-09-04T05:27:07.769Z,14.61
2022-09-04T05:28:07.767Z,14.60
2022-09-04T05:29:07.749Z,14.63
2022-09-04T05:30:07.736Z,14.64
2022-09-04T05:31:07.785Z,14.69
2022-09-04T05:32:07.709Z,14.72
2022-09-04T05:33:07.838Z,14.78
2022-09-04T05:34:07.690Z,14.78
2022-09-04T05:35:07.729Z,14.78
2022-09-04T05:36:07.667Z,14.82
2022-09-04T05:37:07.665Z,14.83
2022-09-04T05:38:07.662Z,14.90
2022-09-04T05:39:07.640Z,14.95
2022-09-04T05:40:07.632Z,14.98
2022-09-04T05:41:07.643Z,15.01
2022-09-04T05:42:07.615Z,15.03
2022-09-04T05:43:07.664Z,15.05
2022-09-04T05:44:07.662Z,15.09
2022-09-04T05:45:07.591Z,15.09
2022-09-04T05:46:07.648Z,15.11
2022-09-04T05:47:07.569Z,15.11
2022-09-04T05:48:07.658Z,15.11
2022-09-04T05:49:07.536Z,15.13
2022-09-04T05:50:07.646Z,15.13
2022-09-04T05:51:07.619Z,15.11
2022-09-04T05:52:07.501Z,15.09
2022-09-04T05:53:07.516Z,15.11
2022-09-04T05:54:07.516Z,15.12
2022-09-04T05:55:07.482Z,15.13
2022-09-04T05:56:07.461Z,15.16
2022-09-04T05:57:07.455Z,15.16
2022-09-04T05:58:07.711Z,15.18
2022-09-04T05:59:07.446Z,15.19
2022-09-04T06:00:07.425Z,15.22
2022-09-04T06:01:07.644Z,15.20
2022-09-04T06:02:07.493Z,15.25
2022-09-04T06:03:07.622Z,15.25
2022-09-04T06:04:07.381Z,15.23
2022-09-04T06:05:07.382Z,15.27
2022-09-04T06:06:07.579Z,15.25
2022-09-04T06:07:07.373Z,15.31
2022-09-04T06:08:07.358Z,15.31
2022-09-04T06:09:07.569Z,15.33
2022-09-04T06:10:07.470Z,15.25
2022-09-04T06:11:07.314Z,15.28
2022-09-04T06:12:07.584Z,15.27
2022-09-04T06:13:07.305Z,15.31
2022-09-04T06:14:07.532Z,15.38
2022-09-04T06:15:07.582Z,15.41
2022-09-04T06:16:07.301Z,15.46
2022-09-04T06:17:07.565Z,15.51
2022-09-04T06:18:07.285Z,15.51
2022-09-04T06:19:07.225Z,15.58
2022-09-04T06:20:07.216Z,15.59
2022-09-04T06:21:07.207Z,15.60
2022-09-04T06:22:07.210Z,15.68
2022-09-04T06:23:07.190Z,15.73
2022-09-04T06:24:07.173Z,15.80
2022-09-04T06:25:07.507Z,15.85
2022-09-04T06:26:07.158Z,15.84
2022-09-04T06:27:07.155Z,15.81
2022-09-04T06:28:07.130Z,15.85
2022-09-04T06:29:07.134Z,15.88
2022-09-04T06:30:07.108Z,15.89
2022-09-04T06:31:07.154Z,15.88
2022-09-04T06:32:07.122Z,15.88
2022-09-04T06:33:07.088Z,15.85
2022-09-04T06:34:07.071Z,15.85
2022-09-04T06:35:07.073Z,15.84
2022-09-04T06:36:07.084Z,15.84
2022-09-04T06:37:07.089Z,15.84
2022-09-04T06:38:07.050Z,15.85
2022-09-04T06:39:07.029Z,15.88
2022-09-04T06:40:07.059Z,15.88
2022-09-04T06:41:07.165Z,15.86
2022-09-04T06:42:07.110Z,15.89
2022-09-04T06:43:07.005Z,15.89
2022-09-04T06:44:07.020Z,15.99
2022-09-04T06:45:06.957Z,16.03
2022-09-04T06:46:06.995Z,16.01
2022-09-04T06:47:07.019Z,16.01
2022-09-04T06:48:06.925Z,16.01
2022-09-04T06:49:07.001Z,16.06
2022-09-04T06:50:06.958Z,16.08
2022-09-04T06:51:06.899Z,16.11
2022-09-04T06:52:06.905Z,16.14
2022-09-04T06:53:07.701Z,16.23
2022-09-04T06:54:06.986Z,16.18
2022-09-04T06:55:06.870Z,16.23
2022-09-04T06:56:06.973Z,16.25
2022-09-04T06:57:07.271Z,16.30
2022-09-04T06:58:06.966Z,16.36
2022-09-04T06:59:06.821Z,16.41
2022-09-04T07:00:06.795Z,16.50
2022-09-04T07:01:06.960Z,16.52
2022-09-04T07:02:07.884Z,16.57
2022-09-04T07:03:06.813Z,16.63
2022-09-04T07:04:06.892Z,16.66
2022-09-04T07:05:06.746Z,16.72
2022-09-04T07:06:07.719Z,16.75
2022-09-04T07:07:06.752Z,16.80
2022-09-04T07:08:06.769Z,16.92
2022-09-04T07:09:06.773Z,17.17
2022-09-04T07:10:10.336Z,17.43
2022-09-04T07:11:06.769Z,17.81
2022-09-04T07:12:06.698Z,18.23
2022-09-04T07:13:06.675Z,18.65
2022-09-04T07:14:06.687Z,18.94
2022-09-04T07:15:06.683Z,19.12
2022-09-04T07:16:06.740Z,19.39
2022-09-04T07:17:06.796Z,19.57
2022-09-04T07:18:06.616Z,19.79
2022-09-04T07:19:06.601Z,20.10
2022-09-04T07:20:06.607Z,20.44
2022-09-04T07:21:06.606Z,20.57
2022-09-04T07:22:06.605Z,20.81
2022-09-04T07:23:06.581Z,20.98
2022-09-04T07:24:06.549Z,21.19
2022-09-04T07:25:06.538Z,21.51
2022-09-04T07:26:06.545Z,21.53
2022-09-04T07:27:06.577Z,21.52
2022-09-04T07:28:06.513Z,21.75
2022-09-04T07:29:06.512Z,22.05
2022-09-04T07:30:06.521Z,22.30
2022-09-04T07:31:06.574Z,22.56
2022-09-04T07:32:06.480Z,22.81
2022-09-04T07:33:06.462Z,23.00
2022-09-04T07:34:06.506Z,23.04
2022-09-04T07:35:06.437Z,23.25
2022-09-04T07:36:06.454Z,23.26
2022-09-04T07:37:06.456Z,23.01
2022-09-04T07:38:06.402Z,23.15
2022-09-04T07:39:06.398Z,23.03
2022-09-04T07:40:06.534Z,23.32
2022-09-04T07:41:06.394Z,23.26
2022-09-04T07:42:06.381Z,23.53
2022-09-04T07:43:06.399Z,23.77
2022-09-04T07:44:06.344Z,24.08
2022-09-04T07:45:06.336Z,24.39
2022-09-04T07:46:06.372Z,24.64
2022-09-04T07:47:06.330Z,24.92
2022-09-04T07:48:06.315Z,24.98
2022-09-04T07:49:06.293Z,24.89
2022-09-04T07:50:06.278Z,25.17
2022-09-04T07:51:06.283Z,25.31
2022-09-04T07:52:06.279Z,25.14
2022-09-04T07:53:10.655Z,25.16
2022-09-04T07:54:06.253Z,25.19
2022-09-04T07:55:06.225Z,25.20
2022-09-04T07:56:06.225Z,25.45
2022-09-04T07:57:06.233Z,25.24
2022-09-04T07:58:06.198Z,25.41
2022-09-04T07:59:06.188Z,25.11
2022-09-04T08:00:06.174Z,25.51
2022-09-04T08:01:06.234Z,25.63
2022-09-04T08:02:06.281Z,25.39
2022-09-04T08:03:06.143Z,25.57
2022-09-04T08:04:06.417Z,25.94
2022-09-04T08:05:06.215Z,26.13
2022-09-04T08:06:06.998Z,26.38
2022-09-04T08:07:10.791Z,26.65
2022-09-04T08:08:06.115Z,27.02
2022-09-04T08:09:06.093Z,27.30
2022-09-04T08:10:06.092Z,27.39
2022-09-04T08:11:06.095Z,27.45
2022-09-04T08:12:06.051Z,27.23
2022-09-04T08:13:06.050Z,27.28
2022-09-04T08:14:06.059Z,26.76
2022-09-04T08:15:06.052Z,26.41
2022-09-04T08:16:06.067Z,25.93
2022-09-04T08:17:06.011Z,25.41
2022-09-04T08:18:05.994Z,25.04
2022-09-04T08:19:05.987Z,24.82
2022-09-04T08:20:05.977Z,24.51
2022-09-04T08:21:05.990Z,24.37
2022-09-04T08:22:05.951Z,23.71
2022-09-04T08:23:05.956Z,23.29
2022-09-04T08:24:05.941Z,23.37
2022-09-04T08:25:05.929Z,22.91
2022-09-04T08:26:05.929Z,23.21
2022-09-04T08:27:05.956Z,23.32
2022-09-04T08:28:05.902Z,23.41
2022-09-04T08:29:05.905Z,24.36
2022-09-04T08:30:05.894Z,25.23
2022-09-04T08:31:06.009Z,26.03
2022-09-04T08:32:05.865Z,26.46
2022-09-04T08:33:05.848Z,26.53
2022-09-04T08:34:05.837Z,26.86
2022-09-04T08:35:05.839Z,27.18
2022-09-04T08:36:05.858Z,27.38
2022-09-04T08:37:05.807Z,27.46
2022-09-04T08:38:05.794Z,27.28
2022-09-04T08:39:07.378Z,26.97
2022-09-04T08:40:05.833Z,26.66
2022-09-04T08:41:05.784Z,26.11
2022-09-04T08:42:05.769Z,25.41
2022-09-04T08:43:05.857Z,24.79
2022-09-04T08:44:05.737Z,24.29
2022-09-04T08:45:05.729Z,23.72
2022-09-04T08:46:05.802Z,23.31
2022-09-04T08:47:05.721Z,22.93
2022-09-04T08:48:05.698Z,22.66
2022-09-04T08:49:05.706Z,22.56
2022-09-04T08:50:05.671Z,22.45
2022-09-04T08:51:05.686Z,22.30
2022-09-04T08:52:05.718Z,22.23
2022-09-04T08:53:05.664Z,22.09
2022-09-04T08:54:05.631Z,22.06
2022-09-04T08:55:05.734Z,21.93
2022-09-04T08:56:05.636Z,21.82
2022-09-04T08:57:05.646Z,21.81
2022-09-04T08:58:05.640Z,21.74
2022-09-04T08:59:05.590Z,21.56
2022-09-04T09:00:05.646Z,21.49
2022-09-04T09:01:05.613Z,21.46
2022-09-04T09:02:05.693Z,21.46
2022-09-04T09:03:05.536Z,21.42
2022-09-04T09:04:05.535Z,21.46
2022-09-04T09:05:05.589Z,21.51
2022-09-04T09:06:05.529Z,21.46
2022-09-04T09:07:05.590Z,21.49
2022-09-04T09:08:05.694Z,21.49
2022-09-04T09:09:05.585Z,21.45
2022-09-04T09:10:05.647Z,21.46
2022-09-04T09:11:05.644Z,21.45
2022-09-04T09:12:05.456Z,21.45
2022-09-04T09:13:05.445Z,21.40
2022-09-04T09:14:05.425Z,21.28
2022-09-04T09:15:05.445Z,21.22
2022-09-04T09:16:05.455Z,21.18
2022-09-04T09:17:05.449Z,21.18
2022-09-04T09:18:05.422Z,21.21
2022-09-04T09:19:05.371Z,21.21
2022-09-04T09:20:05.395Z,21.16
2022-09-04T09:21:05.352Z,21.19
2022-09-04T09:22:05.584Z,21.26
2022-09-04T09:23:05.629Z,21.28
2022-09-04T09:24:05.330Z,21.27
2022-09-04T09:25:05.644Z,21.36
2022-09-04T09:26:05.306Z,21.40
2022-09-04T09:27:05.588Z,21.40
2022-09-04T09:28:05.281Z,21.40
2022-09-04T09:29:05.576Z,21.40
2022-09-04T09:30:05.568Z,21.38
2022-09-04T09:31:05.280Z,21.43
2022-09-04T09:32:05.580Z,21.38
2022-09-04T09:33:05.226Z,21.38
2022-09-04T09:34:05.226Z,21.38
2022-09-04T09:35:05.595Z,21.43
2022-09-04T09:36:05.201Z,21.45
2022-09-04T09:37:05.188Z,21.43
2022-09-04T09:38:05.186Z,21.48
2022-09-04T09:39:05.164Z,21.48
2022-09-04T09:40:05.290Z,21.51
2022-09-04T09:41:05.155Z,21.46
2022-09-04T09:42:05.157Z,21.42
2022-09-04T09:43:05.212Z,21.43
2022-09-04T09:44:05.119Z,21.46
2022-09-04T09:45:05.320Z,21.48
2022-09-04T09:46:05.163Z,21.46
2022-09-04T09:47:05.091Z,21.49
2022-09-04T09:48:07.757Z,21.51
2022-09-04T09:49:05.141Z,21.52
2022-09-04T09:50:05.087Z,21.55
2022-09-04T09:51:05.063Z,21.58
2022-09-04T09:52:05.037Z,21.64
2022-09-04T09:53:05.026Z,21.68
2022-09-04T09:54:05.102Z,21.70
2022-09-04T09:55:05.004Z,21.67
2022-09-04T09:56:04.995Z,21.68
2022-09-04T09:57:04.975Z,21.71
2022-09-04T09:58:04.972Z,21.77
2022-09-04T09:59:04.974Z,21.90
2022-09-04T10:00:04.965Z,21.90
2022-09-04T10:01:08.293Z,21.91
2022-09-04T10:02:05.015Z,21.98
2022-09-04T10:03:05.857Z,21.99
2022-09-04T10:04:05.521Z,21.98
2022-09-04T10:05:04.938Z,21.99
2022-09-04T10:06:04.885Z,21.98
2022-09-04T10:07:04.886Z,22.01
2022-09-04T10:08:04.870Z,21.99
2022-09-04T10:09:09.146Z,22.02
2022-09-04T10:10:04.854Z,21.99
2022-09-04T10:11:04.835Z,21.96
2022-09-04T10:12:04.838Z,21.93
2022-09-04T10:13:04.964Z,21.93
2022-09-04T10:14:04.831Z,21.93
2022-09-04T10:15:04.795Z,21.93
2022-09-04T10:16:04.853Z,21.93
2022-09-04T10:17:04.822Z,21.96
2022-09-04T10:18:04.812Z,21.99
2022-09-04T10:19:04.784Z,22.02
2022-09-04T10:20:04.758Z,22.05
2022-09-04T10:21:04.847Z,22.04
2022-09-04T10:22:04.836Z,22.06
2022-09-04T10:23:04.721Z,22.08
2022-09-04T10:24:04.764Z,22.09
2022-09-04T10:25:04.776Z,22.11
2022-09-04T10:26:04.831Z,22.11
2022-09-04T10:27:04.675Z,22.12
2022-09-04T10:28:04.708Z,22.12
2022-09-04T10:29:04.675Z,22.15
2022-09-04T10:30:04.639Z,22.20
2022-09-04T10:31:04.816Z,22.21
2022-09-04T10:32:05.153Z,22.24
2022-09-04T10:33:09.223Z,22.21
2022-09-04T10:34:04.626Z,22.23
2022-09-04T10:35:04.599Z,22.24
2022-09-04T10:36:04.581Z,22.30
2022-09-04T10:37:04.568Z,22.35
2022-09-04T10:38:04.569Z,22.42
2022-09-04T10:39:04.572Z,22.52
2022-09-04T10:40:04.565Z,22.61
2022-09-04T10:41:04.533Z,22.70
2022-09-04T10:42:04.519Z,22.75
2022-09-04T10:43:04.507Z,22.81
2022-09-04T10:44:04.519Z,22.75
2022-09-04T10:45:04.486Z,22.70
2022-09-04T10:46:04.539Z,22.67
2022-09-04T10:47:04.505Z,22.66
2022-09-04T10:48:04.451Z,22.63
2022-09-04T10:49:04.469Z,22.64
2022-09-04T10:50:04.441Z,22.70
2022-09-04T10:51:04.437Z,22.75
2022-09-04T10:52:04.465Z,22.79
2022-09-04T10:53:04.413Z,22.81
2022-09-04T10:54:07.662Z,22.82
2022-09-04T10:55:04.395Z,22.79
2022-09-04T10:56:04.475Z,22.75
2022-09-04T10:57:04.419Z,22.76
2022-09-04T10:58:04.346Z,22.79
2022-09-04T10:59:04.370Z,22.78
2022-09-04T11:00:04.345Z,22.82
2022-09-04T11:01:04.384Z,22.86
2022-09-04T11:02:04.442Z,22.85
2022-09-04T11:03:04.315Z,22.88
2022-09-04T11:04:04.316Z,22.89
2022-09-04T11:05:04.288Z,22.88
2022-09-04T11:06:04.297Z,22.78
2022-09-04T11:07:04.304Z,22.59
2022-09-04T11:08:04.264Z,22.54
2022-09-04T11:09:04.260Z,22.57
2022-09-04T11:10:04.225Z,22.60
2022-09-04T11:11:04.248Z,22.64
2022-09-04T11:12:04.241Z,22.70
2022-09-04T11:13:04.196Z,22.74
2022-09-04T11:14:04.324Z,22.78
2022-09-04T11:15:04.201Z,22.79
2022-09-04T11:16:04.252Z,22.85
2022-09-04T11:17:04.150Z,22.79
2022-09-04T11:18:04.152Z,22.84
2022-09-04T11:19:04.163Z,22.86
2022-09-04T11:20:04.163Z,22.88
2022-09-04T11:21:04.118Z,22.82
2022-09-04T11:22:04.105Z,22.78
2022-09-04T11:23:04.115Z,22.70
2022-09-04T11:24:04.123Z,22.66
2022-09-04T11:25:04.068Z,22.61
2022-09-04T11:26:04.063Z,22.56
2022-09-04T11:27:08.095Z,22.59
2022-09-04T11:28:04.039Z,22.59
2022-09-04T11:29:04.047Z,22.69
2022-09-04T11:30:04.023Z,22.78
2022-09-04T11:31:04.018Z,22.96
2022-09-04T11:32:04.070Z,23.04
2022-09-04T11:33:03.991Z,23.12
2022-09-04T11:34:03.998Z,23.21
2022-09-04T11:35:03.970Z,23.16
2022-09-04T11:36:03.963Z,23.18
2022-09-04T11:37:03.958Z,23.14
2022-09-04T11:38:03.953Z,23.12
2022-09-04T11:39:04.063Z,23.14
2022-09-04T11:40:03.971Z,23.15
2022-09-04T11:41:03.909Z,23.15
2022-09-04T11:42:03.932Z,23.14
2022-09-04T11:43:03.879Z,23.11
2022-09-04T11:44:03.987Z,23.09
2022-09-04T11:45:03.894Z,23.12
2022-09-04T11:46:03.961Z,23.15
2022-09-04T11:47:03.838Z,23.16
2022-09-04T11:48:03.834Z,23.18
2022-09-04T11:49:03.857Z,23.14
2022-09-04T11:50:03.827Z,23.14
2022-09-04T11:51:03.803Z,23.14
2022-09-04T11:52:03.798Z,23.22
2022-09-04T11:53:03.782Z,23.31
2022-09-04T11:54:03.794Z,23.47
2022-09-04T11:55:03.794Z,23.62
2022-09-04T11:56:03.761Z,23.77
2022-09-04T11:57:03.754Z,23.94
2022-09-04T11:58:03.736Z,24.04
2022-09-04T11:59:03.731Z,24.08
2022-09-04T12:00:03.738Z,24.06
2022-09-04T12:01:03.719Z,24.05
2022-09-04T12:02:03.830Z,24.06
2022-09-04T12:03:03.780Z,24.14
2022-09-04T12:04:03.711Z,24.14
2022-09-04T12:05:03.742Z,24.19
2022-09-04T12:06:03.649Z,24.30
2022-09-04T12:07:03.670Z,24.37
2022-09-04T12:08:03.684Z,24.41
2022-09-04T12:09:03.689Z,24.37
2022-09-04T12:10:03.625Z,24.33
2022-09-04T12:11:03.613Z,24.24
2022-09-04T12:12:03.583Z,24.18
2022-09-04T12:13:14.693Z,24.09
2022-09-04T12:14:03.572Z,24.08
2022-09-04T12:15:07.365Z,23.94
2022-09-04T12:16:03.601Z,23.93
2022-09-04T12:17:03.539Z,23.94
2022-09-04T12:18:03.584Z,23.97
2022-09-04T12:19:03.587Z,23.92
2022-09-04T12:20:07.615Z,23.72
2022-09-04T12:21:03.525Z,23.54
2022-09-04T12:22:03.487Z,23.45
2022-09-04T12:23:03.491Z,23.39
2022-09-04T12:24:03.463Z,23.42
2022-09-04T12:25:03.580Z,23.53
2022-09-04T12:26:03.443Z,23.67
2022-09-04T12:27:03.425Z,23.75
2022-09-04T12:28:03.444Z,23.79
2022-09-04T12:29:03.416Z,23.79
2022-09-04T12:30:03.425Z,23.82
2022-09-04T12:31:03.608Z,23.68
2022-09-04T12:32:03.416Z,23.53
2022-09-04T12:33:03.460Z,23.60
2022-09-04T12:34:03.421Z,23.59
2022-09-04T12:35:03.618Z,23.63
2022-09-04T12:36:03.334Z,23.67
2022-09-04T12:37:03.324Z,23.69
2022-09-04T12:38:03.426Z,23.71
2022-09-04T12:39:03.299Z,23.68
2022-09-04T12:40:04.089Z,23.71
2022-09-04T12:41:03.292Z,23.72
2022-09-04T12:42:03.277Z,23.72
2022-09-04T12:43:03.306Z,23.74
2022-09-04T12:44:03.489Z,23.75
2022-09-04T12:45:03.240Z,23.78
2022-09-04T12:46:04.477Z,23.82
2022-09-04T12:47:03.238Z,23.81
2022-09-04T12:48:03.229Z,23.79
2022-09-04T12:49:03.202Z,23.86
2022-09-04T12:50:03.229Z,23.89
2022-09-04T12:51:03.194Z,23.89
2022-09-04T12:52:03.191Z,23.87